createdAt,value
2018-12-10T00:01:20.830Z,2.57
2018-12-10T00:03:48.925Z,2.80
2018-12-10T00:06:17.056Z,2.23
2018-12-10T00:08:45.355Z,2.53
2018-12-10T00:11:13.402Z,2.17
2018-12-10T00:13:41.435Z,2.23
2018-12-10T00:16:09.559Z,2.03
2018-12-10T00:18:37.708Z,2.80
2018-12-10T00:21:05.812Z,2.93
2018-12-10T00:23:33.885Z,1.63
2018-12-10T00:26:02.011Z,1.83
2018-12-10T00:28:30.203Z,2.27
2018-12-10T00:30:58.546Z,1.90
2018-12-10T00:33:26.846Z,1.90
2018-12-10T00:35:55.463Z,2.10
2018-12-10T00:38:23.543Z,2.20
2018-12-10T00:40:51.637Z,1.90
2018-12-10T00:43:19.759Z,2.00
2018-12-10T00:45:47.827Z,2.17
2018-12-10T00:48:15.931Z,2.20
2018-12-10T00:50:44.070Z,2.50
2018-12-10T00:53:12.143Z,1.70
2018-12-10T00:55:40.327Z,1.70
2018-12-10T00:58:08.405Z,2.27
2018-12-10T01:00:36.486Z,2.67
2018-12-10T01:03:04.594Z,1.70
2018-12-10T01:05:32.689Z,1.87
2018-12-10T01:08:00.968Z,1.93
2018-12-10T01:10:29.051Z,2.93
2018-12-10T01:12:57.142Z,1.50
2018-12-10T01:15:25.282Z,1.80
2018-12-10T01:17:53.382Z,1.90
2018-12-10T01:20:21.448Z,1.90
2018-12-10T01:22:49.528Z,2.23
2018-12-10T01:25:17.599Z,1.87
2018-12-10T01:27:45.743Z,2.10
2018-12-10T01:30:13.795Z,1.50
2018-12-10T01:32:41.862Z,1.77
2018-12-10T01:35:10.023Z,1.63
2018-12-10T01:37:38.165Z,1.20
2018-12-10T01:40:06.311Z,1.57
2018-12-10T01:42:34.374Z,1.40
2018-12-10T01:45:02.515Z,1.70
2018-12-10T01:47:30.583Z,2.00
2018-12-10T01:49:58.715Z,1.87
2018-12-10T01:52:27.006Z,1.93
2018-12-10T01:54:55.048Z,1.97
2018-12-10T01:57:23.131Z,1.20
2018-12-10T01:59:51.205Z,1.27
2018-12-10T02:02:19.350Z,1.10
2018-12-10T02:04:47.538Z,1.37
2018-12-10T02:24:32.780Z,1.30
2018-12-10T02:27:01.231Z,2.03
2018-12-10T02:29:29.427Z,1.47
2018-12-10T02:31:57.490Z,1.77
2018-12-10T02:34:25.553Z,1.50
2018-12-10T02:36:53.610Z,2.57
2018-12-10T02:39:21.854Z,2.17
2018-12-10T02:41:49.947Z,1.77
2018-12-10T02:44:18.057Z,1.60
2018-12-10T02:46:46.076Z,1.77
2018-12-10T02:49:14.312Z,1.73
2018-12-10T02:51:42.696Z,1.77
2018-12-10T02:54:10.808Z,1.40
2018-12-10T02:56:38.893Z,1.60
2018-12-10T02:59:07.000Z,1.80
2018-12-10T03:01:35.123Z,1.30
2018-12-10T03:04:03.432Z,1.70
2018-12-10T03:06:31.684Z,1.90
2018-12-10T03:08:59.862Z,2.20
2018-12-10T03:11:27.853Z,1.63
2018-12-10T03:13:56.014Z,1.87
2018-12-10T03:16:24.185Z,1.50
2018-12-10T03:18:52.591Z,2.10
2018-12-10T03:21:20.709Z,1.90
2018-12-10T03:23:48.869Z,2.00
2018-12-10T03:26:16.963Z,1.60
2018-12-10T03:28:45.038Z,1.93
2018-12-10T03:31:13.104Z,1.80
2018-12-10T03:33:41.302Z,1.23
2018-12-10T03:36:09.376Z,1.80
2018-12-10T03:38:37.487Z,1.67
2018-12-10T03:41:05.696Z,1.60
2018-12-10T03:43:33.763Z,1.77
2018-12-10T03:46:01.780Z,1.43
2018-12-10T03:48:29.864Z,1.40
2018-12-10T03:50:57.962Z,1.40
2018-12-10T03:53:26.062Z,1.80
2018-12-10T03:55:54.149Z,1.17
2018-12-10T03:58:22.412Z,2.17
2018-12-10T04:00:50.503Z,1.33
2018-12-10T04:03:18.651Z,1.63
2018-12-10T04:05:46.731Z,2.20
2018-12-10T04:08:14.881Z,1.40
2018-12-10T04:10:42.970Z,1.23
2018-12-10T04:13:11.047Z,1.67
2018-12-10T04:15:39.174Z,1.33
2018-12-10T04:18:07.284Z,1.53
2018-12-10T04:20:35.468Z,1.50
2018-12-10T04:23:03.657Z,1.80
2018-12-10T04:25:31.726Z,1.47
2018-12-10T04:27:59.815Z,1.50
2018-12-10T04:30:27.960Z,1.37
2018-12-10T04:32:56.056Z,1.57
2018-12-10T04:35:24.233Z,1.40
2018-12-10T04:37:52.390Z,1.53
2018-12-10T04:40:20.446Z,1.57
2018-12-10T04:42:48.647Z,1.50
2018-12-10T04:45:16.722Z,2.33
2018-12-10T04:47:44.748Z,1.50
2018-12-10T04:50:12.844Z,1.80
2018-12-10T04:52:40.918Z,1.60
2018-12-10T04:55:09.025Z,1.70
2018-12-10T04:57:37.158Z,1.30
2018-12-10T05:00:05.326Z,1.03
2018-12-10T05:02:33.427Z,1.50
2018-12-10T05:05:01.504Z,2.00
2018-12-10T05:07:29.674Z,1.43
2018-12-10T05:09:57.870Z,1.67
2018-12-10T05:12:25.930Z,1.50
2018-12-10T05:14:54.014Z,2.00
2018-12-10T05:17:22.179Z,1.23
2018-12-10T05:19:50.244Z,2.23
2018-12-10T05:22:18.394Z,1.53
2018-12-10T05:24:46.583Z,2.30
2018-12-10T05:27:14.747Z,1.70
2018-12-10T05:29:42.766Z,2.40
2018-12-10T05:32:10.836Z,2.53
2018-12-10T05:34:39.006Z,2.10
2018-12-10T05:37:07.031Z,3.13
2018-12-10T05:39:35.165Z,2.33
2018-12-10T05:42:03.325Z,3.23
2018-12-10T05:44:31.919Z,2.37
2018-12-10T05:46:59.994Z,2.90
2018-12-10T05:49:28.030Z,2.47
2018-12-10T05:51:56.092Z,1.80
2018-12-10T05:54:24.264Z,2.13
2018-12-10T05:56:52.367Z,2.40
2018-12-10T05:59:20.434Z,2.40
2018-12-10T06:01:48.558Z,2.87
2018-12-10T06:04:16.818Z,3.90
2018-12-10T06:06:44.853Z,4.60
2018-12-10T06:09:12.934Z,3.80
2018-12-10T06:11:41.034Z,3.23
2018-12-10T06:14:09.137Z,4.40
2018-12-10T06:16:37.203Z,5.30
2018-12-10T06:19:05.231Z,5.90
2018-12-10T06:21:33.267Z,4.47
2018-12-10T06:24:01.452Z,3.57
2018-12-10T06:26:29.616Z,2.77
2018-12-10T06:28:57.730Z,2.40
2018-12-10T06:31:25.803Z,2.97
2018-12-10T06:33:54.224Z,2.40
2018-12-10T06:36:22.369Z,2.23
2018-12-10T06:38:50.426Z,1.70
2018-12-10T06:41:18.524Z,1.83
2018-12-10T06:43:46.783Z,2.33
2018-12-10T06:46:14.923Z,2.67
2018-12-10T06:48:43.089Z,2.23
2018-12-10T06:51:11.243Z,1.97
2018-12-10T06:53:39.340Z,2.40
2018-12-10T06:56:07.423Z,2.67
2018-12-10T06:58:35.498Z,2.00
2018-12-10T07:01:03.716Z,2.20
2018-12-10T07:03:31.995Z,2.03
2018-12-10T07:06:00.066Z,2.20
2018-12-10T07:08:28.095Z,1.60
2018-12-10T07:10:56.183Z,2.27
2018-12-10T07:13:24.182Z,1.70
2018-12-10T07:15:52.286Z,1.80
2018-12-10T07:18:20.350Z,1.53
2018-12-10T07:20:48.444Z,1.60
2018-12-10T07:23:16.499Z,1.37
2018-12-10T07:25:44.635Z,1.53
2018-12-10T07:28:12.645Z,1.73
2018-12-10T07:30:41.572Z,1.43
2018-12-10T07:33:09.884Z,1.97
2018-12-10T07:35:37.995Z,1.77
2018-12-10T07:38:06.211Z,1.73
2018-12-10T07:40:34.339Z,1.60
2018-12-10T07:43:02.404Z,1.50
2018-12-10T07:45:30.524Z,1.80
2018-12-10T07:47:58.576Z,1.93
2018-12-10T07:50:26.660Z,2.23
2018-12-10T07:52:54.736Z,1.90
2018-12-10T07:55:22.868Z,1.23
2018-12-10T07:57:52.916Z,1.60
2018-12-10T08:00:21.008Z,1.30
2018-12-10T08:02:49.155Z,1.90
2018-12-10T08:05:17.378Z,1.80
2018-12-10T08:07:45.499Z,1.47
2018-12-10T08:10:13.586Z,1.50
2018-12-10T08:12:41.666Z,1.50
2018-12-10T08:15:09.691Z,1.93
2018-12-10T08:17:37.813Z,2.17
2018-12-10T08:20:06.034Z,2.00
2018-12-10T08:22:34.156Z,1.87
2018-12-10T08:25:02.218Z,2.20
2018-12-10T08:27:30.358Z,2.30
2018-12-10T08:29:58.557Z,1.90
2018-12-10T08:32:26.750Z,2.27
2018-12-10T08:34:54.953Z,2.07
2018-12-10T08:37:23.045Z,1.77
2018-12-10T08:39:51.124Z,2.97
2018-12-10T08:42:19.347Z,1.67
2018-12-10T08:44:47.395Z,2.10
2018-12-10T08:47:16.180Z,1.23
2018-12-10T08:49:44.772Z,2.00
2018-12-10T08:52:12.935Z,2.30
2018-12-10T08:54:41.112Z,2.50
2018-12-10T08:57:09.306Z,2.20
2018-12-10T08:59:37.449Z,2.70
2018-12-10T09:02:05.514Z,2.30
2018-12-10T09:04:33.621Z,1.80
2018-12-10T09:07:01.692Z,4.50
2018-12-10T09:09:29.913Z,1.50
2018-12-10T09:11:58.062Z,1.80
2018-12-10T09:14:26.148Z,2.17
2018-12-10T09:16:54.270Z,1.77
2018-12-10T09:19:22.418Z,1.43
2018-12-10T09:21:50.467Z,1.87
2018-12-10T09:24:18.629Z,1.73
2018-12-10T09:26:46.713Z,2.03
2018-12-10T09:29:14.819Z,1.80
2018-12-10T09:31:42.962Z,3.60
2018-12-10T09:34:12.011Z,1.50
2018-12-10T09:36:40.655Z,1.70
2018-12-10T09:39:08.847Z,1.87
2018-12-10T09:41:36.994Z,1.30
2018-12-10T09:44:05.134Z,1.73
2018-12-10T09:46:33.220Z,2.23
2018-12-10T09:49:01.365Z,2.10
2018-12-10T09:51:29.554Z,1.50
2018-12-10T09:53:57.662Z,1.70
2018-12-10T09:56:25.710Z,2.30
2018-12-10T09:58:53.846Z,2.27
2018-12-10T10:01:21.920Z,2.23
2018-12-10T10:03:50.016Z,2.03
2018-12-10T10:06:18.229Z,1.67
2018-12-10T10:08:46.366Z,2.13
2018-12-10T10:11:14.425Z,1.60
2018-12-10T10:13:42.563Z,2.83
2018-12-10T10:16:10.716Z,1.57
2018-12-10T10:18:38.897Z,2.20
2018-12-10T10:21:11.295Z,2.10
2018-12-10T10:23:37.090Z,2.27
2018-12-10T10:26:05.147Z,2.13
2018-12-10T10:28:33.201Z,2.13
2018-12-10T10:31:01.402Z,2.10
2018-12-10T10:33:32.483Z,2.40
2018-12-10T10:35:59.631Z,1.90
2018-12-10T10:38:28.555Z,2.23
2018-12-10T10:40:57.063Z,2.50
2018-12-10T10:43:25.146Z,1.63
2018-12-10T10:45:53.335Z,1.60
2018-12-10T10:48:21.398Z,1.80
2018-12-10T10:50:49.463Z,2.37
2018-12-10T10:53:17.626Z,1.60
2018-12-10T10:55:45.728Z,1.90
2018-12-10T10:58:13.774Z,1.60
2018-12-10T11:00:47.226Z,1.83
2018-12-10T11:03:20.783Z,1.47
2018-12-10T11:05:48.843Z,1.20
2018-12-10T11:08:16.947Z,2.20
2018-12-10T11:10:45.097Z,1.27
2018-12-10T11:13:13.332Z,1.20
2018-12-10T11:15:41.459Z,1.47
2018-12-10T11:18:09.603Z,1.17
2018-12-10T11:20:37.715Z,1.70
2018-12-10T11:23:05.761Z,1.40
2018-12-10T11:25:34.042Z,1.30
2018-12-10T11:28:02.080Z,1.20
2018-12-10T11:30:30.374Z,1.37
2018-12-10T11:32:58.366Z,1.50
2018-12-10T11:35:26.425Z,1.00
2018-12-10T11:37:54.971Z,1.37
2018-12-10T11:40:23.191Z,1.10
2018-12-10T11:42:51.335Z,1.60
2018-12-10T11:45:19.432Z,1.50
2018-12-10T11:47:49.353Z,1.63
2018-12-10T11:50:17.528Z,1.53
2018-12-10T11:52:45.742Z,1.43
2018-12-10T11:55:13.802Z,1.20
2018-12-10T11:57:41.864Z,1.30
2018-12-10T12:00:10.710Z,1.30
2018-12-10T12:02:38.933Z,1.37
2018-12-10T12:05:07.182Z,1.50
2018-12-10T12:07:35.220Z,1.50
2018-12-10T12:10:04.476Z,1.70
2018-12-10T12:12:32.550Z,1.80
2018-12-10T12:15:00.614Z,1.60
2018-12-10T12:17:28.764Z,2.10
2018-12-10T12:19:56.910Z,1.73
2018-12-10T12:22:25.087Z,1.60
2018-12-10T12:24:53.176Z,2.03
2018-12-10T12:27:21.275Z,1.70
2018-12-10T12:29:49.242Z,1.57
2018-12-10T12:32:17.327Z,1.70
2018-12-10T12:34:45.359Z,2.17
2018-12-10T12:37:13.456Z,1.87
2018-12-10T12:39:41.563Z,1.87
2018-12-10T12:42:09.658Z,1.70
2018-12-10T12:44:37.803Z,1.40
2018-12-10T12:47:05.963Z,1.67
2018-12-10T12:49:34.171Z,1.90
2018-12-10T12:52:02.431Z,1.80
2018-12-10T12:54:30.515Z,1.90
2018-12-10T12:56:58.550Z,1.37
2018-12-10T13:02:01.291Z,1.33
2018-12-10T13:04:33.432Z,1.47
2018-12-10T13:07:02.296Z,1.60
2018-12-10T13:09:30.522Z,1.83
2018-12-10T13:11:58.595Z,1.97
2018-12-10T13:14:26.667Z,2.47
2018-12-10T13:16:54.814Z,2.17
2018-12-10T13:19:22.858Z,1.70
2018-12-10T13:21:50.951Z,1.90
2018-12-10T13:24:19.009Z,1.70
2018-12-10T13:26:47.173Z,1.43
2018-12-10T13:29:15.469Z,1.70
2018-12-10T13:31:43.539Z,2.00
2018-12-10T13:34:11.553Z,2.00
2018-12-10T13:36:39.591Z,2.07
2018-12-10T13:39:08.002Z,2.17
2018-12-10T13:41:36.733Z,2.33
2018-12-10T13:44:04.982Z,1.80
2018-12-10T13:46:33.103Z,1.93
2018-12-10T13:49:01.286Z,1.57
2018-12-10T13:51:29.445Z,2.73
2018-12-10T13:53:57.610Z,1.67
2018-12-10T13:56:25.695Z,1.43
2018-12-10T13:58:53.837Z,2.03
2018-12-10T14:01:21.924Z,1.57
2018-12-10T14:03:50.042Z,1.90
2018-12-10T14:06:18.282Z,1.80
2018-12-10T14:08:46.355Z,2.00
2018-12-10T14:11:14.426Z,1.57
2018-12-10T14:13:46.101Z,1.50
2018-12-10T14:16:14.183Z,1.90
2018-12-10T14:18:42.275Z,1.93
2018-12-10T14:21:10.324Z,1.80
2018-12-10T14:23:38.501Z,2.00
2018-12-10T14:26:06.696Z,2.00
2018-12-10T14:28:34.810Z,1.57
2018-12-10T14:31:03.610Z,2.40
2018-12-10T14:33:31.752Z,2.20
2018-12-10T14:35:59.843Z,1.60
2018-12-10T14:38:27.897Z,1.70
2018-12-10T14:40:55.979Z,2.10
2018-12-10T14:43:24.154Z,2.37
2018-12-10T14:45:52.225Z,1.97
2018-12-10T14:48:20.318Z,2.40
2018-12-10T14:50:48.369Z,1.60
2018-12-10T14:53:16.467Z,1.73
2018-12-10T14:55:44.638Z,1.80
2018-12-10T14:58:12.731Z,2.10
2018-12-10T15:00:40.821Z,2.70
2018-12-10T15:03:08.885Z,2.63
2018-12-10T15:05:37.184Z,2.30
2018-12-10T15:08:05.406Z,1.77
2018-12-10T15:10:33.562Z,2.30
2018-12-10T15:13:01.770Z,2.30
2018-12-10T15:15:29.827Z,1.63
2018-12-10T15:17:57.911Z,1.87
2018-12-10T15:20:25.993Z,1.93
2018-12-10T15:22:54.685Z,2.73
2018-12-10T15:25:22.712Z,1.90
2018-12-10T15:27:50.783Z,2.20
2018-12-10T15:30:18.827Z,1.87
2018-12-10T15:32:47.070Z,1.60
2018-12-10T15:35:15.379Z,1.73
2018-12-10T15:37:43.480Z,1.63
2018-12-10T15:40:11.580Z,2.00
2018-12-10T15:42:39.643Z,1.80
2018-12-10T15:45:07.916Z,2.37
2018-12-10T15:47:36.001Z,2.37
2018-12-10T15:50:04.392Z,1.70
2018-12-10T15:52:32.521Z,2.43
2018-12-10T15:55:00.676Z,2.23
2018-12-10T15:57:28.752Z,2.13
2018-12-10T16:00:00.324Z,2.07
2018-12-10T16:02:28.702Z,1.43
2018-12-10T16:04:56.987Z,1.70
2018-12-10T16:07:25.638Z,1.60
2018-12-10T16:09:53.680Z,1.90
2018-12-10T16:12:21.769Z,2.10
2018-12-10T16:14:49.894Z,1.70
2018-12-10T16:17:17.993Z,2.03
2018-12-10T16:19:46.058Z,1.97
2018-12-10T16:22:14.162Z,1.77
2018-12-10T16:24:42.259Z,2.87
2018-12-10T16:27:10.283Z,1.87
2018-12-10T16:29:38.339Z,2.10
2018-12-10T16:32:06.414Z,2.10
2018-12-10T16:34:34.482Z,2.17
2018-12-10T16:37:02.538Z,2.70
2018-12-10T16:39:30.699Z,2.40
2018-12-10T16:41:58.810Z,1.90
2018-12-10T16:44:26.865Z,2.43
2018-12-10T16:46:54.910Z,2.70
2018-12-10T16:49:23.015Z,2.67
2018-12-10T16:51:51.103Z,2.50
2018-12-10T16:54:19.253Z,2.50
2018-12-10T16:56:47.284Z,2.00
2018-12-10T16:59:15.442Z,2.40
2018-12-10T17:01:43.492Z,2.13
2018-12-10T17:04:11.574Z,2.13
2018-12-10T17:06:39.684Z,2.27
2018-12-10T17:09:10.666Z,2.13
2018-12-10T17:11:39.067Z,2.20
2018-12-10T17:14:07.428Z,2.00
2018-12-10T17:16:35.494Z,2.30
2018-12-10T17:19:03.587Z,2.30
2018-12-10T17:21:31.643Z,2.07
2018-12-10T17:23:59.906Z,2.03
2018-12-10T17:26:27.987Z,1.93
2018-12-10T17:28:56.079Z,2.20
2018-12-10T17:31:24.959Z,2.60
2018-12-10T17:33:53.083Z,1.80
2018-12-10T17:38:54.602Z,1.87
2018-12-10T17:41:22.988Z,1.70
2018-12-10T17:43:51.139Z,2.03
2018-12-10T17:46:19.304Z,2.30
2018-12-10T17:48:47.926Z,2.50
2018-12-10T17:51:16.245Z,1.63
2018-12-10T17:53:44.376Z,1.80
2018-12-10T17:56:12.554Z,1.90
2018-12-10T17:58:40.890Z,1.50
2018-12-10T18:01:09.064Z,2.03
2018-12-10T18:03:37.287Z,1.70
2018-12-10T18:06:05.437Z,1.80
2018-12-10T18:08:33.483Z,1.87
2018-12-10T18:11:01.566Z,2.30
2018-12-10T18:13:29.591Z,1.50
2018-12-10T18:15:57.705Z,1.70
2018-12-10T18:18:25.797Z,1.77
2018-12-10T18:20:53.950Z,1.63
2018-12-10T18:23:22.019Z,1.03
2018-12-10T18:25:50.154Z,2.60
2018-12-10T18:28:18.247Z,1.30
2018-12-10T18:30:46.390Z,1.50
2018-12-10T18:33:14.529Z,1.90
2018-12-10T18:35:42.681Z,1.83
2018-12-10T18:38:10.738Z,1.40
2018-12-10T18:40:38.836Z,1.80
2018-12-10T18:43:06.895Z,1.80
2018-12-10T18:45:35.450Z,1.97
2018-12-10T18:48:03.568Z,2.03
2018-12-10T18:50:34.915Z,1.67
2018-12-10T18:53:03.024Z,2.10
2018-12-10T18:55:31.249Z,2.40
2018-12-10T18:57:59.384Z,2.13
2018-12-10T19:00:27.494Z,2.20
2018-12-10T19:02:55.593Z,2.17
2018-12-10T19:05:27.859Z,1.67
2018-12-10T19:07:55.992Z,2.53
2018-12-10T19:10:24.655Z,2.50
2018-12-10T19:12:52.898Z,2.13
2018-12-10T19:15:21.006Z,2.00
2018-12-10T19:17:49.129Z,2.27
2018-12-10T19:20:17.379Z,2.70
2018-12-10T19:22:45.530Z,2.07
2018-12-10T19:25:13.598Z,2.67
2018-12-10T19:27:41.725Z,2.40
2018-12-10T19:30:09.815Z,2.60
2018-12-10T19:32:37.906Z,2.20
2018-12-10T19:35:06.039Z,2.37
2018-12-10T19:37:34.168Z,1.70
2018-12-10T19:40:02.251Z,2.30
2018-12-10T19:42:30.324Z,2.27
2018-12-10T19:44:58.462Z,2.23
2018-12-10T19:47:26.623Z,2.20
2018-12-10T19:49:54.766Z,2.97
2018-12-10T19:52:23.034Z,1.87
2018-12-10T19:54:51.086Z,3.00
2018-12-10T19:57:19.199Z,2.17
2018-12-10T19:59:47.413Z,1.80
2018-12-10T20:02:15.591Z,2.40
2018-12-10T20:04:43.715Z,2.40
2018-12-10T20:07:12.390Z,2.43
2018-12-10T20:09:40.440Z,2.83
2018-12-10T20:12:08.558Z,3.80
2018-12-10T20:14:36.763Z,2.77
2018-12-10T20:17:05.794Z,2.40
2018-12-10T20:19:33.844Z,2.90
2018-12-10T20:22:02.007Z,2.87
2018-12-10T20:24:30.089Z,2.50
2018-12-10T20:26:58.262Z,3.40
2018-12-10T20:29:26.347Z,2.37
2018-12-10T20:31:54.557Z,2.23
2018-12-10T20:34:22.694Z,3.00
2018-12-10T20:39:24.435Z,2.00
2018-12-10T20:41:53.377Z,2.67
2018-12-10T20:44:21.460Z,3.30
2018-12-10T20:46:49.550Z,3.17
2018-12-10T20:49:17.574Z,2.93
2018-12-10T20:51:45.855Z,3.30
2018-12-10T20:54:13.924Z,3.57
2018-12-10T20:56:42.075Z,2.80
2018-12-10T20:59:10.171Z,2.73
2018-12-10T21:01:38.318Z,2.77
2018-12-10T21:04:06.439Z,2.33
2018-12-10T21:06:35.388Z,3.83
2018-12-10T21:09:07.160Z,2.20
2018-12-10T21:11:35.239Z,3.00
2018-12-10T21:14:03.400Z,3.80
2018-12-10T21:16:31.591Z,2.67
2018-12-10T21:19:03.183Z,3.07
2018-12-10T21:21:32.281Z,2.53
2018-12-10T21:24:00.398Z,2.33
2018-12-10T21:26:28.430Z,2.90
2018-12-10T21:28:56.544Z,2.20
2018-12-10T21:31:24.645Z,2.30
2018-12-10T21:33:56.473Z,3.10
2018-12-10T21:36:24.525Z,2.50
2018-12-10T21:38:52.595Z,3.03
2018-12-10T21:41:20.670Z,2.47
2018-12-10T21:43:48.772Z,3.33
2018-12-10T21:46:16.890Z,2.43
2018-12-10T21:48:45.060Z,2.77
2018-12-10T21:51:13.153Z,3.10
2018-12-10T21:53:41.216Z,3.33
2018-12-10T21:56:09.340Z,3.10
2018-12-10T21:58:37.542Z,3.00
2018-12-10T22:01:05.633Z,2.60
2018-12-10T22:03:34.327Z,2.73
2018-12-10T22:06:02.391Z,2.90
2018-12-10T22:08:30.563Z,3.93
2018-12-10T22:10:58.640Z,2.50
2018-12-10T22:13:26.727Z,3.50
2018-12-10T22:15:54.882Z,2.57
2018-12-10T22:18:23.111Z,3.00
2018-12-10T22:20:51.251Z,3.70
2018-12-10T22:23:19.354Z,3.77
2018-12-10T22:25:47.367Z,2.17
2018-12-10T22:28:15.493Z,2.70
2018-12-10T22:30:43.615Z,2.53
2018-12-10T22:33:11.699Z,2.50
2018-12-10T22:35:40.000Z,3.17
2018-12-10T22:38:08.113Z,3.47
2018-12-10T22:40:36.247Z,3.03
2018-12-10T22:43:04.434Z,2.90
2018-12-10T22:45:32.546Z,2.70
2018-12-10T22:48:00.575Z,3.67
2018-12-10T22:50:29.201Z,2.90
2018-12-10T22:52:57.447Z,3.23
2018-12-10T22:55:25.548Z,2.40
2018-12-10T22:57:53.628Z,3.40
2018-12-10T23:00:26.038Z,3.20
2018-12-10T23:02:54.257Z,2.90
2018-12-10T23:05:22.338Z,3.60
2018-12-10T23:07:50.430Z,2.53
2018-12-10T23:10:18.602Z,3.07
2018-12-10T23:12:46.687Z,2.60
2018-12-10T23:15:14.720Z,2.90
2018-12-10T23:17:42.827Z,3.07
2018-12-10T23:20:10.924Z,2.70
2018-12-10T23:22:38.941Z,3.27
2018-12-10T23:25:07.107Z,2.90
2018-12-10T23:27:35.198Z,2.73
2018-12-10T23:30:03.718Z,3.27
2018-12-10T23:32:31.834Z,3.03
2018-12-10T23:34:59.939Z,2.80
2018-12-10T23:37:28.006Z,2.63
2018-12-10T23:39:56.200Z,3.00
2018-12-10T23:42:24.378Z,3.97
2018-12-10T23:44:54.438Z,2.70
2018-12-10T23:47:22.610Z,3.33
2018-12-10T23:49:50.649Z,3.40
2018-12-10T23:52:18.698Z,3.20
2018-12-10T23:54:46.783Z,2.93
2018-12-10T23:57:14.898Z,2.60
2018-12-10T23:59:43.014Z,2.83
